Time;durP1;ratioP1;P1;durP2;ratioP2;P2;SDS_P1;SDS_P2;PMS_P1;PMS_P2;Temp;Humidity;BMP_temperature;BMP_pressure;BME280_temperature;BME280_humidity;BME280_pressure;Samples;Min_cycle;Max_cycle;Signal;HPM_P1;HPM_P2
2021/01/08 00:01:50;;;;;;;1.98;1.38;;;2.20;96.00;;;;;;4181735;28;20045;-88
2021/01/08 00:03:52;;;;;;;1.10;1.00;;;2.20;96.30;;;;;;4164621;28;20151;-89
2021/01/08 00:05:54;;;;;;;0.80;0.80;;;2.20;96.10;;;;;;4181463;28;20123;-89
2021/01/08 00:07:56;;;;;;;0.70;0.70;;;2.10;96.20;;;;;;4183077;28;20056;-88
2021/01/08 00:09:57;;;;;;;1.48;0.82;;;2.10;96.10;;;;;;4165149;28;20045;-91
2021/01/08 00:11:58;;;;;;;1.67;1.13;;;2.10;96.20;;;;;;4183272;28;20049;-92
2021/01/08 00:13:59;;;;;;;3.40;1.60;;;2.10;96.20;;;;;;4187962;28;20040;-92
2021/01/08 00:16:01;;;;;;;3.65;1.27;;;2.10;96.20;;;;;;4164023;28;20049;-91
2021/01/08 00:18:02;;;;;;;1.10;1.05;;;2.10;96.20;;;;;;4164507;28;20441;-91
2021/01/08 00:20:05;;;;;;;1.35;1.08;;;2.20;96.10;;;;;;4181519;28;20100;-91
2021/01/08 00:22:06;;;;;;;1.60;1.02;;;2.10;96.40;;;;;;4166951;28;20052;-92
2021/01/08 00:24:09;;;;;;;1.73;1.35;;;2.10;96.20;;;;;;4182588;28;20635;-92
2021/01/08 00:26:10;;;;;;;1.38;1.10;;;2.10;96.20;;;;;;4180598;28;20059;-91
2021/01/08 00:28:11;;;;;;;4.93;1.63;;;2.10;96.20;;;;;;4164686;28;20051;-92
2021/01/08 00:30:13;;;;;;;2.47;1.92;;;2.10;96.30;;;;;;4180603;28;20604;-91
2021/01/08 00:32:14;;;;;;;0.55;0.55;;;2.10;96.20;;;;;;4183457;28;20052;-91
2021/01/08 00:34:17;;;;;;;0.57;0.57;;;2.20;96.10;;;;;;4165061;28;20079;-91
2021/01/08 00:36:19;;;;;;;1.60;1.48;;;2.20;96.10;;;;;;4177017;28;20485;-91
2021/01/08 00:38:20;;;;;;;1.20;1.15;;;2.30;95.90;;;;;;4166739;28;20059;-92
2021/01/08 00:40:22;;;;;;;2.78;1.42;;;2.30;95.90;;;;;;4165045;28;20071;-91
2021/01/08 00:42:23;;;;;;;2.50;1.52;;;2.30;96.00;;;;;;4180665;28;20045;-92
2021/01/08 00:44:24;;;;;;;4.18;1.45;;;2.20;96.00;;;;;;4167265;28;20050;-92
2021/01/08 00:46:40;;;;;;;1.67;1.58;;;2.20;96.00;;;;;;4181442;28;20049;-91
2021/01/08 00:48:42;;;;;;;2.10;1.75;;;2.30;96.00;;;;;;4169004;28;20058;-90
2021/01/08 00:50:43;;;;;;;5.10;1.77;;;2.30;95.90;;;;;;4181041;28;20045;-91
2021/01/08 00:52:45;;;;;;;1.38;0.98;;;2.20;96.00;;;;;;4192276;28;20051;-92
2021/01/08 00:54:48;;;;;;;0.90;0.63;;;2.20;96.10;;;;;;4168622;28;20053;-91
2021/01/08 00:56:51;;;;;;;3.20;1.55;;;2.20;96.10;;;;;;4166708;28;20080;-91
2021/01/08 00:58:53;;;;;;;0.82;0.82;;;2.20;96.30;;;;;;4184541;28;20045;-91
2021/01/08 01:00:54;;;;;;;1.00;0.43;;;2.20;96.30;;;;;;4182663;28;20057;-92
2021/01/08 01:02:56;;;;;;;0.82;0.70;;;2.20;96.10;;;;;;4183645;28;20053;-91
2021/01/08 01:04:57;;;;;;;7.07;1.02;;;2.30;96.10;;;;;;4166725;28;20144;-93
2021/01/08 01:06:58;;;;;;;2.10;1.50;;;2.30;96.00;;;;;;4164537;28;20060;-91
2021/01/08 01:09:00;;;;;;;6.57;1.45;;;2.30;96.00;;;;;;4181288;28;20053;-91
2021/01/08 01:11:01;;;;;;;2.20;2.05;;;2.30;96.20;;;;;;4184151;28;20587;-91
2021/01/08 01:13:03;;;;;;;1.73;1.38;;;2.30;96.10;;;;;;4184880;28;20067;-92
2021/01/08 01:15:05;;;;;;;4.88;1.08;;;2.20;96.10;;;;;;4209063;28;20120;-93
2021/01/08 01:17:07;;;;;;;0.75;0.70;;;2.30;96.10;;;;;;4185282;28;20029;-94
2021/01/08 01:19:08;;;;;;;6.70;2.83;;;2.30;96.10;;;;;;4189602;28;20068;-93
2021/01/08 01:21:13;;;;;;;3.83;1.63;;;2.20;96.20;;;;;;4198417;28;20473;-91
2021/01/08 01:23:15;;;;;;;3.03;1.20;;;2.30;96.20;;;;;;4164072;28;20096;-91
2021/01/08 01:25:16;;;;;;;5.22;1.52;;;2.30;96.20;;;;;;4170154;28;20132;-90
2021/01/08 01:27:17;;;;;;;2.45;1.95;;;2.20;96.30;;;;;;4195438;28;20106;-88
2021/01/08 01:29:18;;;;;;;1.17;1.05;;;2.20;96.30;;;;;;4187152;28;20045;-89
2021/01/08 01:31:20;;;;;;;1.27;0.73;;;2.20;96.20;;;;;;4167698;28;20416;-88
2021/01/08 01:33:22;;;;;;;2.75;1.95;;;2.20;96.30;;;;;;4167269;28;20112;-88
2021/01/08 01:35:23;;;;;;;3.60;1.23;;;2.10;96.30;;;;;;4168986;28;20148;-88
2021/01/08 01:37:24;;;;;;;3.00;1.80;;;2.20;96.30;;;;;;4168064;28;20449;-88
2021/01/08 01:39:25;;;;;;;1.45;0.98;;;2.20;96.40;;;;;;4183271;28;20049;-88
2021/01/08 01:41:27;;;;;;;4.47;1.55;;;2.10;96.50;;;;;;4167198;28;20136;-90
2021/01/08 01:43:28;;;;;;;1.10;1.02;;;2.10;96.60;;;;;;4166562;28;20080;-89
2021/01/08 01:45:30;;;;;;;2.45;2.15;;;2.10;96.60;;;;;;4183745;28;20059;-90
2021/01/08 01:47:31;;;;;;;2.08;1.45;;;2.10;96.70;;;;;;4167168;28;20054;-89
2021/01/08 01:49:32;;;;;;;4.55;1.77;;;2.10;96.70;;;;;;4185576;28;20072;-89
2021/01/08 01:51:34;;;;;;;1.25;1.15;;;2.10;96.70;;;;;;4168415;28;20056;-91
2021/01/08 01:53:35;;;;;;;5.20;2.50;;;2.10;96.50;;;;;;4166653;28;20123;-91
2021/01/08 01:55:37;;;;;;;4.30;2.28;;;2.20;96.40;;;;;;4173016;28;20045;-90
2021/01/08 01:57:38;;;;;;;1.38;1.27;;;2.20;96.40;;;;;;4184907;28;20161;-91
2021/01/08 01:59:40;;;;;;;1.38;1.17;;;2.20;96.60;;;;;;4183338;28;20044;-92
2021/01/08 02:01:41;;;;;;;2.08;1.90;;;2.20;96.50;;;;;;4183544;28;20077;-91
2021/01/08 02:03:51;;;;;;;5.00;2.47;;;2.20;96.40;;;;;;4167003;28;20445;-91
2021/01/08 02:05:55;;;;;;;1.73;0.73;;;2.20;96.50;;;;;;4183678;28;20510;-91
2021/01/08 02:08:23;;;;;;;0.50;0.43;;;2.20;96.50;;;;;;4156283;28;20060;-90
2021/01/08 02:10:26;;;;;;;2.17;1.40;;;2.20;96.50;;;;;;4185415;28;20054;-90
2021/01/08 02:12:27;;;;;;;1.90;1.23;;;2.20;96.50;;;;;;4200015;28;20123;-91
2021/01/08 02:14:29;;;;;;;1.13;1.10;;;2.30;96.40;;;;;;4185876;28;20077;-91
2021/01/08 02:16:30;;;;;;;3.35;2.17;;;2.20;96.40;;;;;;4183260;28;20124;-91
2021/01/08 02:18:32;;;;;;;1.15;0.73;;;2.20;96.30;;;;;;4167177;28;20053;-91
2021/01/08 02:20:36;;;;;;;4.63;2.25;;;2.20;96.40;;;;;;4190161;28;20092;-92
2021/01/08 02:22:48;;;;;;;2.00;1.83;;;2.30;96.50;;;;;;4171838;28;20077;-92
2021/01/08 02:25:03;;;;;;;2.97;1.35;;;2.20;96.50;;;;;;4188739;28;20064;-91
2021/01/08 02:27:05;;;;;;;1.02;0.85;;;2.20;96.20;;;;;;4199595;28;20055;-91
2021/01/08 02:29:07;;;;;;;1.58;1.23;;;2.20;96.10;;;;;;4185851;28;20048;-93
2021/01/08 02:31:09;;;;;;;2.65;1.08;;;2.20;96.30;;;;;;4186825;28;20053;-90
2021/01/08 02:33:12;;;;;;;3.17;1.75;;;2.20;96.20;;;;;;4183493;28;20059;-90
2021/01/08 02:35:13;;;;;;;2.00;1.90;;;2.20;96.20;;;;;;4178184;28;20064;-91
2021/01/08 02:37:15;;;;;;;5.00;0.82;;;2.30;96.20;;;;;;4166735;28;20052;-91
2021/01/08 02:39:17;;;;;;;1.95;1.65;;;2.30;96.20;;;;;;4199435;28;20055;-91
2021/01/08 02:41:19;;;;;;;5.72;2.28;;;2.30;96.20;;;;;;4176997;28;20468;-91
2021/01/08 02:43:27;;;;;;;0.60;0.60;;;2.30;96.20;;;;;;4197899;28;20056;-91
2021/01/08 02:45:29;;;;;;;1.95;1.15;;;2.20;96.10;;;;;;4185646;28;20045;-91
2021/01/08 02:47:31;;;;;;;3.50;1.55;;;2.20;96.30;;;;;;4159287;28;20507;-92
2021/01/08 02:49:32;;;;;;;1.83;1.15;;;2.30;96.40;;;;;;4168114;28;20064;-92
2021/01/08 02:51:34;;;;;;;2.47;1.55;;;2.20;96.40;;;;;;4165808;28;20128;-91
2021/01/08 02:53:36;;;;;;;9.35;2.30;;;2.20;96.40;;;;;;4166005;28;20084;-91
2021/01/08 02:55:38;;;;;;;1.90;1.77;;;2.20;96.50;;;;;;4168294;28;20123;-91
2021/01/08 02:57:41;;;;;;;2.28;1.60;;;2.20;96.50;;;;;;4165728;28;20497;-92
2021/01/08 02:59:43;;;;;;;1.40;1.15;;;2.20;96.50;;;;;;4199788;28;20127;-92
2021/01/08 03:01:45;;;;;;;2.90;1.05;;;2.20;96.70;;;;;;4169302;28;20069;-90
2021/01/08 03:03:46;;;;;;;5.65;1.35;;;2.20;96.70;;;;;;4182174;28;20060;-92
2021/01/08 03:05:48;;;;;;;2.95;0.80;;;2.20;96.70;;;;;;4200169;28;20076;-91
2021/01/08 03:07:50;;;;;;;2.75;1.58;;;2.20;96.70;;;;;;4179817;28;20051;-91
2021/01/08 03:09:51;;;;;;;2.47;1.33;;;2.30;96.90;;;;;;4198814;28;20072;-91
2021/01/08 03:11:57;;;;;;;1.92;1.35;;;2.20;96.90;;;;;;4166644;28;20071;-91
2021/01/08 03:13:59;;;;;;;1.48;1.17;;;2.30;96.80;;;;;;4173016;28;20055;-91
2021/01/08 03:16:00;;;;;;;1.08;0.90;;;2.30;96.80;;;;;;4183238;28;20073;-91
2021/01/08 03:18:02;;;;;;;1.48;1.30;;;2.30;96.80;;;;;;4175625;28;20072;-91
2021/01/08 03:20:04;;;;;;;1.45;0.98;;;2.30;96.80;;;;;;4184444;28;20056;-91
2021/01/08 03:22:05;;;;;;;1.15;0.95;;;2.30;96.80;;;;;;4165691;28;20084;-91
2021/01/08 03:24:07;;;;;;;1.95;1.20;;;2.30;96.80;;;;;;4181701;28;20080;-91
2021/01/08 03:26:09;;;;;;;0.88;0.80;;;2.30;97.00;;;;;;4189209;28;20053;-91
2021/01/08 03:28:11;;;;;;;2.22;1.45;;;2.30;97.00;;;;;;4166369;28;20080;-91
2021/01/08 03:30:13;;;;;;;1.83;1.05;;;2.20;97.00;;;;;;4182417;28;20052;-91
2021/01/08 03:32:15;;;;;;;2.85;2.20;;;2.20;97.00;;;;;;4171566;28;20049;-91
2021/01/08 03:34:16;;;;;;;1.27;1.17;;;2.30;96.90;;;;;;4166471;28;20531;-92
2021/01/08 03:36:17;;;;;;;2.70;1.92;;;2.30;97.00;;;;;;4177165;28;20053;-90
2021/01/08 03:38:20;;;;;;;2.22;1.08;;;2.20;97.00;;;;;;4188042;28;20053;-92
2021/01/08 03:40:21;;;;;;;2.17;1.88;;;2.20;97.20;;;;;;4213773;28;20048;-91
2021/01/08 03:42:23;;;;;;;2.88;2.28;;;2.20;97.40;;;;;;4194747;28;20056;-93
2021/01/08 03:44:24;;;;;;;0.77;0.77;;;2.20;97.40;;;;;;4195493;28;20049;-92
2021/01/08 03:46:26;;;;;;;0.98;0.98;;;2.10;97.50;;;;;;4174434;28;20081;-91
2021/01/08 03:48:27;;;;;;;2.88;1.52;;;2.10;97.60;;;;;;4182219;28;20049;-91
2021/01/08 03:50:29;;;;;;;1.23;1.13;;;2.10;97.70;;;;;;4165186;28;20076;-91
2021/01/08 03:52:30;;;;;;;1.88;1.77;;;2.10;97.60;;;;;;4182325;28;20127;-91
2021/01/08 03:54:32;;;;;;;3.42;1.15;;;2.20;97.70;;;;;;4181329;28;20103;-91
2021/01/08 03:56:35;;;;;;;1.20;1.10;;;2.20;97.60;;;;;;4184676;28;20471;-91
2021/01/08 03:58:36;;;;;;;1.20;1.20;;;2.20;97.60;;;;;;4165207;28;20537;-91
2021/01/08 04:00:42;;;;;;;2.47;1.38;;;2.20;97.90;;;;;;4180443;28;20452;-90
2021/01/08 04:02:44;;;;;;;0.93;0.65;;;2.20;97.80;;;;;;4196617;28;20052;-90
2021/01/08 04:04:46;;;;;;;2.65;1.67;;;2.20;97.80;;;;;;4207623;28;20064;-93
2021/01/08 04:06:48;;;;;;;0.68;0.68;;;2.20;97.70;;;;;;4197663;28;20064;-91
2021/01/08 04:08:49;;;;;;;4.65;2.85;;;2.20;97.80;;;;;;4183404;28;20053;-90
2021/01/08 04:10:50;;;;;;;2.28;1.38;;;2.20;97.90;;;;;;4164834;28;20529;-91
2021/01/08 04:12:52;;;;;;;4.43;1.58;;;2.10;98.00;;;;;;4181177;28;20504;-91
2021/01/08 04:14:54;;;;;;;1.20;0.90;;;2.20;98.00;;;;;;4180232;28;20521;-91
2021/01/08 04:16:56;;;;;;;2.15;1.30;;;2.20;97.90;;;;;;4191319;28;20045;-90
2021/01/08 04:19:03;;;;;;;0.83;0.83;;;2.20;98.00;;;;;;4165888;28;20073;-91
2021/01/08 04:21:05;;;;;;;2.28;1.92;;;2.20;97.90;;;;;;4181399;28;20307;-88
2021/01/08 04:23:06;;;;;;;0.95;0.95;;;2.20;98.00;;;;;;4161924;28;20049;-88
2021/01/08 04:25:08;;;;;;;1.67;1.48;;;2.20;97.90;;;;;;4166120;28;20052;-88
2021/01/08 04:27:09;;;;;;;1.55;1.00;;;2.30;97.90;;;;;;4180364;28;20098;-88
2021/01/08 04:29:11;;;;;;;2.55;2.05;;;2.20;98.10;;;;;;4181569;28;20519;-91
2021/01/08 04:31:12;;;;;;;2.63;1.90;;;2.20;98.10;;;;;;4180642;28;20060;-91
2021/01/08 04:33:14;;;;;;;1.48;1.38;;;2.10;98.60;;;;;;4180388;28;20053;-90
2021/01/08 04:35:15;;;;;;;4.15;0.98;;;2.10;98.30;;;;;;4174278;28;20060;-91
2021/01/08 04:37:16;;;;;;;2.90;1.75;;;2.10;98.20;;;;;;4194312;28;20389;-90
2021/01/08 04:39:18;;;;;;;1.52;1.33;;;2.10;98.40;;;;;;4176296;28;20143;-90
2021/01/08 04:41:19;;;;;;;3.95;1.33;;;2.10;98.40;;;;;;4181033;28;20055;-91
2021/01/08 04:43:20;;;;;;;2.40;2.20;;;2.10;98.60;;;;;;4181319;28;20431;-90
2021/01/08 04:45:22;;;;;;;5.25;1.00;;;2.10;98.70;;;;;;4164241;28;20054;-90
2021/01/08 04:47:23;;;;;;;1.88;1.50;;;2.00;98.80;;;;;;4165600;28;20103;-88
2021/01/08 04:49:24;;;;;;;2.05;1.27;;;2.00;98.90;;;;;;4165139;28;20441;-88
2021/01/08 04:51:26;;;;;;;2.13;1.92;;;2.00;98.90;;;;;;4163921;28;20081;-90
2021/01/08 04:53:27;;;;;;;3.95;1.33;;;2.00;99.00;;;;;;4164238;28;20395;-88
2021/01/08 04:55:29;;;;;;;12.80;4.03;;;2.00;99.00;;;;;;4182865;28;20056;-89
2021/01/08 04:57:31;;;;;;;2.65;2.03;;;2.00;98.90;;;;;;4164218;28;20064;-88
2021/01/08 04:59:33;;;;;;;3.17;2.15;;;2.00;99.10;;;;;;4165417;28;20063;-88
2021/01/08 05:01:35;;;;;;;0.95;0.60;;;2.00;99.10;;;;;;4182695;28;20045;-88
2021/01/08 05:03:36;;;;;;;2.20;1.10;;;2.10;99.00;;;;;;4164180;28;20115;-89
2021/01/08 05:05:38;;;;;;;4.38;1.17;;;2.10;99.00;;;;;;4166366;28;20080;-88
2021/01/08 05:07:45;;;;;;;5.82;3.38;;;2.10;98.90;;;;;;4166047;28;20045;-89
2021/01/08 05:09:46;;;;;;;1.00;1.00;;;2.10;99.00;;;;;;4164004;28;20065;-89
2021/01/08 05:11:47;;;;;;;4.65;2.00;;;2.10;99.10;;;;;;4166001;28;20045;-89
2021/01/08 05:13:53;;;;;;;3.92;1.60;;;2.00;99.10;;;;;;4166211;28;20049;-89
2021/01/08 05:15:55;;;;;;;3.75;2.28;;;2.00;99.30;;;;;;4164867;28;20061;-90
2021/01/08 05:17:56;;;;;;;1.10;1.08;;;2.00;99.30;;;;;;4180619;28;20080;-89
2021/01/08 05:19:57;;;;;;;4.53;1.70;;;2.10;99.30;;;;;;4180313;28;20112;-89
2021/01/08 05:21:59;;;;;;;1.65;1.38;;;2.00;99.40;;;;;;4164692;28;20082;-89
2021/01/08 05:24:02;;;;;;;14.32;2.58;;;2.00;99.50;;;;;;4177886;28;20151;-89
2021/01/08 05:26:03;;;;;;;2.22;1.70;;;2.00;99.40;;;;;;4181770;28;20489;-89
2021/01/08 05:28:06;;;;;;;2.25;1.15;;;2.10;99.50;;;;;;4164130;28;20057;-89
2021/01/08 05:30:18;;;;;;;2.63;1.77;;;2.10;99.40;;;;;;4195532;28;20416;-89
2021/01/08 05:32:19;;;;;;;3.13;1.40;;;2.10;99.40;;;;;;4163986;28;20522;-89
2021/01/08 05:34:26;;;;;;;2.25;2.05;;;2.00;99.30;;;;;;4164354;28;20525;-89
2021/01/08 05:36:27;;;;;;;;;;;2.00;99.50;;;;;;4164734;28;20060;-89
2021/01/08 05:38:28;;;;;;;2.75;1.25;;;2.00;99.60;;;;;;4197293;28;19924;-89
2021/01/08 05:40:30;;;;;;;3.58;1.95;;;2.00;99.60;;;;;;4165239;28;20058;-91
2021/01/08 05:42:31;;;;;;;3.65;2.67;;;2.00;99.60;;;;;;4180239;28;20589;-89
2021/01/08 05:44:33;;;;;;;1.63;1.48;;;2.00;99.50;;;;;;4164437;28;20061;-89
2021/01/08 05:46:37;;;;;;;4.22;1.23;;;2.00;99.70;;;;;;4165194;28;20049;-89
2021/01/08 05:48:50;;;;;;;2.45;1.40;;;2.00;99.80;;;;;;4180662;28;20140;-89
2021/01/08 05:50:51;;;;;;;1.55;1.35;;;1.90;99.70;;;;;;4181170;28;20056;-88
2021/01/08 05:53:08;;;;;;;1.85;1.55;;;1.90;99.90;;;;;;4210586;28;20055;-88
2021/01/08 05:55:12;;;;;;;3.80;2.40;;;2.00;99.90;;;;;;4180162;28;20492;-89
2021/01/08 05:57:14;;;;;;;0.93;0.90;;;1.90;99.90;;;;;;4175802;28;20057;-89
2021/01/08 05:59:16;;;;;;;4.28;2.60;;;2.00;99.90;;;;;;4180855;28;20059;-89
2021/01/08 06:01:17;;;;;;;1.50;1.40;;;2.00;99.90;;;;;;4166368;28;20053;-88
2021/01/08 06:03:20;;;;;;;3.38;2.08;;;2.00;99.90;;;;;;4170358;28;20164;-88
2021/01/08 06:05:21;;;;;;;1.65;1.27;;;2.00;99.90;;;;;;4177541;28;20057;-89
2021/01/08 06:07:23;;;;;;;1.33;1.23;;;2.00;99.90;;;;;;4192182;28;20041;-92
2021/01/08 06:09:24;;;;;;;4.15;1.98;;;1.90;99.90;;;;;;4204131;28;20037;-91
2021/01/08 06:11:29;;;;;;;1.25;1.15;;;2.00;99.90;;;;;;4188254;28;20093;-92
2021/01/08 06:13:31;;;;;;;3.50;1.33;;;2.00;99.90;;;;;;4204952;28;20067;-89
2021/01/08 06:15:32;;;;;;;3.20;1.35;;;2.00;99.90;;;;;;4184979;28;20033;-90
2021/01/08 06:17:34;;;;;;;2.75;1.67;;;2.00;99.90;;;;;;4204555;28;20049;-88
2021/01/08 06:19:35;;;;;;;2.95;1.70;;;2.10;99.90;;;;;;4186353;28;20035;-91
2021/01/08 06:21:44;;;;;;;4.43;2.25;;;2.00;99.90;;;;;;4172900;28;20045;-89
2021/01/08 06:23:46;;;;;;;1.77;1.60;;;2.00;99.90;;;;;;4185446;28;20075;-89
2021/01/08 06:25:48;;;;;;;2.92;1.83;;;2.00;99.90;;;;;;4191085;28;20062;-89
2021/01/08 06:27:49;;;;;;;2.25;1.60;;;2.00;99.90;;;;;;4150350;28;20057;-89
2021/01/08 06:29:54;;;;;;;0.77;0.77;;;2.00;99.90;;;;;;4166938;28;20057;-89
2021/01/08 06:32:05;;;;;;;;;;;2.10;99.90;;;;;;4167835;28;20578;-87
2021/01/08 06:34:06;;;;;;;2.10;1.33;;;2.10;99.90;;;;;;4183712;28;19929;-90
2021/01/08 06:36:16;;;;;;;2.08;1.95;;;2.10;99.90;;;;;;4166254;28;20129;-90
2021/01/08 06:38:17;;;;;;;3.65;1.85;;;2.10;99.90;;;;;;4178166;28;20560;-89
2021/01/08 06:40:18;;;;;;;2.15;1.95;;;2.10;99.90;;;;;;4194950;28;20135;-89
2021/01/08 06:42:51;;;;;;;0.77;0.77;;;2.00;99.90;;;;;;4179074;28;20062;-90
2021/01/08 06:44:56;;;;;;;2.78;2.22;;;2.00;99.90;;;;;;4184690;28;20418;-89
2021/01/08 06:47:03;;;;;;;1.95;1.45;;;2.00;99.90;;;;;;4169056;28;20065;-89
2021/01/08 06:49:08;;;;;;;4.50;1.05;;;2.00;99.90;;;;;;4167338;28;20053;-85
2021/01/08 06:51:09;;;;;;;;;;;2.00;99.90;;;;;;4199717;28;20052;-85
2021/01/08 06:53:11;;;;;;;2.85;2.58;;;2.00;99.90;;;;;;4199277;28;20002;-86
2021/01/08 06:55:17;;;;;;;1.95;1.30;;;2.00;99.90;;;;;;4200948;28;22667;-85
2021/01/08 06:57:19;;;;;;;2.00;1.27;;;2.00;99.90;;;;;;4195367;28;20045;-84
2021/01/08 06:59:21;;;;;;;2.85;2.38;;;2.00;99.90;;;;;;4199598;28;20075;-86
2021/01/08 07:01:57;;;;;;;2.53;1.55;;;1.90;99.90;;;;;;4182781;28;20041;-87
2021/01/08 07:04:00;;;;;;;2.03;1.90;;;2.00;99.90;;;;;;4177908;28;20099;-84
2021/01/08 07:06:01;;;;;;;1.90;1.63;;;1.90;99.90;;;;;;4196105;28;20045;-86
2021/01/08 07:08:03;;;;;;;2.75;2.25;;;2.00;99.90;;;;;;4199707;28;20045;-87
2021/01/08 07:10:04;;;;;;;4.15;2.75;;;1.90;99.90;;;;;;4183160;28;20135;-86
2021/01/08 07:12:07;;;;;;;3.65;2.65;;;1.90;99.90;;;;;;4200956;28;20416;-86
2021/01/08 07:14:12;;;;;;;2.10;1.42;;;1.90;99.90;;;;;;4165547;28;20057;-85
2021/01/08 07:16:20;;;;;;;2.67;1.05;;;1.90;99.90;;;;;;4182275;28;20509;-85
2021/01/08 07:18:23;;;;;;;6.10;2.33;;;1.90;99.90;;;;;;4194590;28;20051;-86
2021/01/08 07:20:25;;;;;;;1.35;1.25;;;1.90;99.90;;;;;;4166146;28;20124;-86
2021/01/08 07:22:36;;;;;;;2.30;2.20;;;1.90;99.90;;;;;;4200187;28;20054;-86
2021/01/08 07:24:39;;;;;;;3.78;1.63;;;2.00;99.90;;;;;;4199132;28;20075;-86
2021/01/08 07:26:40;;;;;;;1.48;1.20;;;1.90;99.90;;;;;;4199914;28;20492;-85
2021/01/08 07:28:47;;;;;;;3.08;2.55;;;2.00;99.90;;;;;;4200613;28;20045;-85
2021/01/08 07:31:07;;;;;;;3.33;2.58;;;1.90;99.90;;;;;;4198315;28;20048;-85
2021/01/08 07:33:17;;;;;;;5.47;2.38;;;1.90;99.90;;;;;;4196815;28;20496;-88
2021/01/08 07:35:22;;;;;;;1.77;1.67;;;1.90;99.90;;;;;;4198599;28;20050;-88
2021/01/08 07:37:58;;;;;;;1.15;1.08;;;1.90;99.90;;;;;;4199849;28;20040;-88
2021/01/08 07:40:01;;;;;;;12.02;3.45;;;1.80;99.90;;;;;;4163037;28;20052;-85
2021/01/08 07:42:34;;;;;;;4.95;1.30;;;1.80;99.90;;;;;;4163909;28;20048;-86
2021/01/08 07:44:36;;;;;;;1.48;1.38;;;1.80;99.90;;;;;;4163361;28;20064;-85
2021/01/08 07:46:40;;;;;;;1.17;1.08;;;1.90;99.90;;;;;;4144788;28;20054;-86
2021/01/08 07:48:43;;;;;;;1.42;1.33;;;1.80;99.90;;;;;;4147634;28;20081;-84
2021/01/08 07:50:54;;;;;;;3.90;1.90;;;1.90;99.90;;;;;;4145576;28;20128;-90
2021/01/08 07:52:55;;;;;;;4.65;2.53;;;1.90;99.90;;;;;;4158452;28;20077;-86
2021/01/08 07:54:56;;;;;;;2.92;1.90;;;1.90;99.90;;;;;;4162846;28;20049;-86
2021/01/08 07:57:04;;;;;;;3.13;2.03;;;1.90;99.90;;;;;;4163222;28;20045;-86
2021/01/08 07:59:09;;;;;;;2.10;1.98;;;2.00;99.90;;;;;;4144546;28;20056;-83
2021/01/08 08:01:11;;;;;;;2.67;1.47;;;2.00;99.90;;;;;;4149715;28;20064;-83
2021/01/08 08:03:13;;;;;;;3.25;2.85;;;2.00;99.90;;;;;;4142533;28;20681;-84
2021/01/08 08:05:15;;;;;;;1.10;1.10;;;2.10;99.90;;;;;;4129428;28;20081;-86
2021/01/08 08:07:16;;;;;;;3.58;2.40;;;2.10;99.90;;;;;;4144819;28;20052;-84
2021/01/08 08:09:18;;;;;;;3.55;3.05;;;2.10;99.90;;;;;;4159584;28;20110;-87
2021/01/08 08:11:25;;;;;;;1.42;1.15;;;2.10;99.90;;;;;;4167209;28;20037;-85
2021/01/08 08:13:29;;;;;;;1.85;1.00;;;2.10;99.90;;;;;;4160079;28;20108;-86
2021/01/08 08:15:30;;;;;;;3.45;3.17;;;2.10;99.90;;;;;;4163441;28;20057;-86
2021/01/08 08:17:31;;;;;;;1.98;1.77;;;2.10;99.90;;;;;;4167879;28;20041;-86
2021/01/08 08:19:33;;;;;;;2.03;1.63;;;2.10;99.90;;;;;;4192353;28;20058;-86
2021/01/08 08:21:36;;;;;;;2.85;1.83;;;2.10;99.90;;;;;;4194934;28;20127;-87
2021/01/08 08:23:38;;;;;;;0.82;0.82;;;2.10;99.90;;;;;;4189206;28;20539;-87
2021/01/08 08:25:40;;;;;;;1.35;0.98;;;2.10;99.90;;;;;;4196442;28;20127;-85
2021/01/08 08:27:41;;;;;;;1.50;1.20;;;2.10;99.90;;;;;;4182263;28;20045;-87
2021/01/08 08:29:42;;;;;;;3.53;1.63;;;2.10;99.90;;;;;;4185616;28;20059;-87
2021/01/08 08:31:48;;;;;;;1.13;1.02;;;2.10;99.90;;;;;;4165694;28;20041;-88
2021/01/08 08:33:49;;;;;;;4.18;1.83;;;2.20;99.90;;;;;;4164915;28;20484;-84
2021/01/08 08:35:51;;;;;;;2.03;1.73;;;2.20;99.90;;;;;;4195415;28;20083;-87
2021/01/08 08:37:53;;;;;;;1.63;1.25;;;2.30;99.90;;;;;;4181410;28;20045;-87
2021/01/08 08:40:00;;;;;;;3.40;1.42;;;2.30;99.90;;;;;;4198429;28;20047;-87
2021/01/08 08:42:02;;;;;;;2.28;1.25;;;2.40;99.90;;;;;;4197794;28;20045;-87
2021/01/08 08:44:09;;;;;;;1.45;1.30;;;2.40;99.90;;;;;;4183934;28;20529;-88
2021/01/08 08:46:10;;;;;;;9.30;2.00;;;2.40;99.90;;;;;;4181421;28;20057;-86
2021/01/08 08:48:11;;;;;;;2.40;2.03;;;2.40;99.90;;;;;;4164121;28;20685;-85
2021/01/08 08:50:14;;;;;;;3.65;1.55;;;2.40;99.90;;;;;;4181143;28;20079;-86
2021/01/08 08:52:26;;;;;;;2.13;1.15;;;2.40;99.90;;;;;;4181617;28;20471;-83
2021/01/08 08:54:27;;;;;;;1.85;1.15;;;2.40;99.90;;;;;;4194019;28;20456;-90
2021/01/08 08:56:29;;;;;;;1.60;1.50;;;2.40;99.90;;;;;;4197516;28;20056;-86
2021/01/08 08:58:30;;;;;;;4.07;1.77;;;2.40;99.90;;;;;;4181745;28;20105;-87
2021/01/08 09:00:35;;;;;;;1.95;1.77;;;2.40;99.90;;;;;;4196879;28;20049;-87
2021/01/08 09:02:36;;;;;;;;;;;2.30;99.90;;;;;;4198084;28;20040;-88
2021/01/08 09:04:52;;;;;;;4.97;1.15;;;2.30;99.90;;;;;;4197294;28;19983;-87
2021/01/08 09:06:55;;;;;;;1.20;1.10;;;2.20;99.90;;;;;;4182290;28;20064;-85
2021/01/08 09:08:56;;;;;;;4.47;2.45;;;2.20;99.90;;;;;;4197032;28;20049;-86
2021/01/08 09:11:15;;;;;;;0.90;0.90;;;2.20;99.90;;;;;;4180870;28;20052;-86
2021/01/08 09:13:21;;;;;;;0.73;0.73;;;2.20;99.90;;;;;;4199365;28;20497;-90
2021/01/08 09:15:27;;;;;;;0.93;0.93;;;2.20;99.90;;;;;;4192535;28;20059;-83
2021/01/08 09:17:32;;;;;;;1.60;1.50;;;2.20;99.90;;;;;;4180789;28;20061;-83
2021/01/08 09:19:46;;;;;;;0.80;0.80;;;2.30;99.90;;;;;;4163711;28;20073;-79
2021/01/08 09:21:50;;;;;;;1.85;1.38;;;2.30;99.90;;;;;;4195174;28;20591;-79
2021/01/08 09:23:52;;;;;;;5.00;1.70;;;2.30;99.90;;;;;;4196071;28;20125;-79
2021/01/08 09:25:54;;;;;;;1.27;0.98;;;2.40;99.90;;;;;;4163330;28;20502;-79
2021/01/08 09:27:55;;;;;;;0.65;0.65;;;2.40;99.90;;;;;;4162572;28;20053;-80
2021/01/08 09:30:08;;;;;;;1.52;1.38;;;2.40;99.90;;;;;;4196750;28;20131;-83
2021/01/08 09:32:10;;;;;;;0.68;0.68;;;2.50;99.90;;;;;;4179807;28;20055;-84
2021/01/08 09:34:16;;;;;;;4.05;2.05;;;2.60;99.90;;;;;;4179889;28;20048;-82
2021/01/08 09:36:18;;;;;;;3.00;1.75;;;2.60;99.80;;;;;;4191355;28;20048;-81
2021/01/08 09:38:21;;;;;;;2.63;2.40;;;2.70;99.70;;;;;;4180814;28;20064;-83
2021/01/08 09:40:23;;;;;;;3.20;1.23;;;2.80;99.70;;;;;;4168487;28;20045;-83
2021/01/08 09:42:24;;;;;;;1.52;0.65;;;2.70;99.60;;;;;;4199029;28;20066;-82
2021/01/08 09:44:35;;;;;;;2.80;1.60;;;2.70;99.50;;;;;;4199410;28;20037;-83
2021/01/08 09:46:59;;;;;;;0.70;0.70;;;2.80;99.60;;;;;;4182954;28;20041;-83
2021/01/08 09:49:06;;;;;;;1.55;1.33;;;2.80;99.30;;;;;;4186257;28;20048;-84
2021/01/08 09:51:08;;;;;;;2.08;0.93;;;2.80;99.20;;;;;;4198423;28;20041;-82
2021/01/08 09:53:10;;;;;;;0.90;0.75;;;2.80;99.00;;;;;;4182663;28;20053;-85
2021/01/08 09:55:21;;;;;;;3.00;1.15;;;2.80;99.10;;;;;;4185075;28;20553;-85
2021/01/08 09:57:25;;;;;;;0.57;0.55;;;2.80;99.20;;;;;;4194791;28;20050;-85
2021/01/08 09:59:27;;;;;;;1.17;0.88;;;2.90;99.00;;;;;;4199380;28;20171;-85
2021/01/08 10:01:41;;;;;;;1.05;0.98;;;3.00;98.90;;;;;;4182182;28;20145;-86
2021/01/08 10:03:51;;;;;;;0.73;0.50;;;3.00;98.60;;;;;;4198935;28;20049;-85
2021/01/08 10:06:01;;;;;;;1.48;1.02;;;3.00;98.60;;;;;;4200393;28;20127;-86
2021/01/08 10:08:03;;;;;;;0.68;0.63;;;3.00;98.50;;;;;;4183737;28;20041;-82
2021/01/08 10:10:05;;;;;;;2.28;1.35;;;3.00;98.60;;;;;;4199416;28;20139;-85
2021/01/08 10:12:07;;;;;;;1.65;1.55;;;3.00;98.80;;;;;;4215102;28;20506;-85
2021/01/08 10:14:09;;;;;;;1.13;1.05;;;3.00;98.80;;;;;;4183109;28;20049;-86
2021/01/08 10:16:10;;;;;;;1.17;0.85;;;3.00;98.60;;;;;;4199328;28;20076;-84
2021/01/08 10:18:28;;;;;;;2.47;1.42;;;3.10;98.60;;;;;;4198337;28;20048;-85
2021/01/08 10:20:29;;;;;;;2.80;1.63;;;3.10;98.60;;;;;;4199925;28;20128;-84
2021/01/08 10:22:31;;;;;;;0.60;0.60;;;3.10;98.40;;;;;;4199630;28;20574;-85
2021/01/08 10:24:32;;;;;;;1.75;1.58;;;3.10;98.20;;;;;;4199604;28;20451;-85
2021/01/08 10:26:33;;;;;;;1.95;1.58;;;3.10;98.20;;;;;;4199205;28;20048;-86
2021/01/08 10:28:48;;;;;;;1.80;0.88;;;3.10;98.20;;;;;;4199034;28;20128;-84
2021/01/08 10:30:53;;;;;;;2.05;1.00;;;3.10;98.30;;;;;;4181711;28;20063;-84
2021/01/08 10:32:55;;;;;;;0.98;0.98;;;3.00;98.50;;;;;;4200170;28;20090;-83
2021/01/08 10:34:57;;;;;;;1.33;1.15;;;3.10;98.10;;;;;;4198539;28;20433;-83
2021/01/08 10:36:58;;;;;;;2.03;1.00;;;3.20;97.80;;;;;;4198926;28;20048;-83
2021/01/08 10:38:59;;;;;;;3.25;1.75;;;3.20;97.70;;;;;;4183824;28;20452;-83
2021/01/08 10:41:00;;;;;;;2.60;1.08;;;3.20;97.40;;;;;;4199696;28;20123;-83
2021/01/08 10:43:01;;;;;;;0.77;0.55;;;3.20;97.10;;;;;;4199916;28;20552;-83
2021/01/08 10:45:03;;;;;;;1.65;1.55;;;3.20;97.30;;;;;;4198236;28;20055;-85
2021/01/08 10:47:05;;;;;;;1.98;1.38;;;3.20;97.00;;;;;;4199760;28;20045;-84
2021/01/08 10:49:06;;;;;;;0.70;0.70;;;3.20;96.80;;;;;;4182633;28;20060;-82
2021/01/08 10:51:08;;;;;;;3.42;1.63;;;3.20;97.00;;;;;;4199546;28;20519;-83
2021/01/08 10:53:09;;;;;;;0.68;0.57;;;3.30;96.80;;;;;;4183832;28;20053;-82